nws-alerts: Checking more than four warning/county codes can delay the loading of your pages. You should use a cron job to get the data.
EllijayWeather Station Historical Data
 
Daily Summary for March 29, 2020 Units:  English    Metric   Both
Daily Weekly Monthly Yearly Custom
  Current: High: Low: Average:
Temperature: 73.9 °F 76.5 °F 64.4 °F 69.4 °F
Dew Point: 43.9 °F 66.2 °F 39.7 °F 58.7 °F
Humidity: 34% 98% 28% 74%
Wind Speed: 0.0mph 8.1mph 0.0mph 0.4mph
Wind Gust: 0.0mph 10.0mph - -
WindCalm - - SW
Pressure: 30.07 in 30.08 in 29.93 in -
Precipitation: 0.14 in      
Historical Graphs
 
 
Tabular Data for March 29, 2020
Time Temperature Dew Point Pressure Wind Wind Speed Wind Gust Humidity Rainfall Rate (Hourly) solar
00:00 66.0 °F 62.4 °F 29.98 in Calm     88% 0.00 in meteobridge W/m2
00:05 66.0 °F 62.4 °F 29.98 in Calm     88% 0.00 in meteobridge W/m2
00:10 66.0 °F 62.4 °F 29.98 in Calm     88% 0.00 in meteobridge W/m2
00:15 66.0 °F 62.4 °F 29.98 in Calm     88% 0.00 in meteobridge W/m2
00:20 65.8 °F 62.2 °F 29.97 in Calm     88% 0.00 in meteobridge W/m2
00:25 65.8 °F 62.2 °F 29.97 in Calm     88% 0.00 in meteobridge W/m2
00:30 65.8 °F 62.2 °F 29.97 in Calm     88% 0.00 in meteobridge W/m2
00:35 65.7 °F 62.1 °F 29.97 in Calm     88% 0.00 in meteobridge W/m2
00:40 65.7 °F 62.1 °F 29.97 in Calm     88% 0.00 in meteobridge W/m2
00:45 65.5 °F 62.2 °F 29.97 in Calm     89% 0.00 in meteobridge W/m2
00:50 65.3 °F 62.1 °F 29.97 in Calm     89% 0.00 in meteobridge W/m2
00:55 65.1 °F 61.9 °F 29.96 in Calm     89% 0.00 in meteobridge W/m2
01:00 64.9 °F 61.7 °F 29.96 in Calm     89% 0.00 in meteobridge W/m2
01:05 64.9 °F 61.9 °F 29.96 in Calm     90% 0.00 in meteobridge W/m2
01:10 64.8 °F 61.7 °F 29.96 in Calm     90% 0.00 in meteobridge W/m2
01:15 64.8 °F 61.7 °F 29.96 in Calm     90% 0.00 in meteobridge W/m2
01:20 64.6 °F 61.5 °F 29.96 in Calm     90% 0.00 in meteobridge W/m2
01:25 64.6 °F 61.5 °F 29.96 in Calm     90% 0.00 in meteobridge W/m2
01:30 64.6 °F 61.5 °F 29.96 in Calm     90% 0.00 in meteobridge W/m2
01:35 64.4 °F 61.7 °F 29.96 in Calm     91% 0.00 in meteobridge W/m2
01:40 64.4 °F 61.7 °F 29.96 in Calm     91% 0.00 in meteobridge W/m2
01:45 64.6 °F 61.5 °F 29.96 in Calm     90% 0.00 in meteobridge W/m2
01:50 64.8 °F 62.1 °F 29.96 in Calm     91% 0.00 in meteobridge W/m2
01:55 65.1 °F 62.4 °F 29.95 in Calm     91% 0.00 in meteobridge W/m2
02:00 65.5 °F 63.1 °F 29.95 in Calm   1.0 mph 92% 0.00 in meteobridge W/m2
02:05 65.8 °F 62.4 °F 29.94 in Calm     89% 0.00 in meteobridge W/m2
02:10 66.4 °F 63.0 °F 29.96 in Calm     89% 0.00 in meteobridge W/m2
02:15 66.7 °F 63.1 °F 29.96 in Calm   2.0 mph 88% 0.00 in meteobridge W/m2
02:20 67.3 °F 63.7 °F 29.96 in Calm     88% 0.00 in meteobridge W/m2
02:25 67.5 °F 63.5 °F 29.95 in Calm     87% 0.00 in meteobridge W/m2
02:30 67.8 °F 63.9 °F 29.95 in Calm     87% 0.00 in meteobridge W/m2
02:35 68.4 °F 64.0 °F 29.95 in Calm     86% 0.00 in meteobridge W/m2
02:40 68.5 °F 64.2 °F 29.94 in Calm     86% 0.00 in meteobridge W/m2
02:45 68.5 °F 64.2 °F 29.94 in Calm     86% 0.00 in meteobridge W/m2
02:50 68.5 °F 64.2 °F 29.94 in Calm     86% 0.00 in meteobridge W/m2
02:55 68.5 °F 64.2 °F 29.94 in Calm     86% 0.00 in meteobridge W/m2
03:00 68.5 °F 64.2 °F 29.94 in Calm     86% 0.00 in meteobridge W/m2
03:05 68.5 °F 64.2 °F 29.94 in Calm   1.0 mph 86% 0.00 in meteobridge W/m2
03:10 68.7 °F 64.4 °F 29.94 in Calm     86% 0.00 in meteobridge W/m2
03:15 68.7 °F 64.4 °F 29.93 in Calm   1.0 mph 86% 0.00 in meteobridge W/m2
03:20 68.7 °F 64.4 °F 29.94 in Calm     86% 0.00 in meteobridge W/m2
03:25 68.7 °F 64.4 °F 29.93 in Calm     86% 0.00 in meteobridge W/m2
03:30 68.5 °F 64.2 °F 29.93 in Calm     86% 0.00 in meteobridge W/m2
03:35 68.4 °F 64.0 °F 29.93 in Calm     86% 0.00 in meteobridge W/m2
03:40 68.2 °F 64.2 °F 29.93 in Calm     87% 0.00 in meteobridge W/m2
03:45 68.0 °F 64.0 °F 29.93 in Calm     87% 0.00 in meteobridge W/m2
03:50 67.8 °F 63.9 °F 29.93 in Calm     87% 0.00 in meteobridge W/m2
03:55 67.6 °F 64.0 °F 29.93 in Calm     88% 0.00 in meteobridge W/m2
04:00 67.6 °F 64.0 °F 29.94 in Calm     88% 0.00 in meteobridge W/m2
04:05 67.5 °F 63.9 °F 29.94 in Calm     88% 0.00 in meteobridge W/m2
04:10 67.5 °F 63.9 °F 29.94 in Calm     88% 0.00 in meteobridge W/m2
04:15 67.5 °F 63.9 °F 29.94 in Calm   2.0 mph 88% 0.00 in meteobridge W/m2
04:20 67.5 °F 63.9 °F 29.94 in Calm     88% 0.00 in meteobridge W/m2
04:25 67.5 °F 63.9 °F 29.94 in Calm     88% 0.00 in meteobridge W/m2
04:30 67.5 °F 63.9 °F 29.95 in Calm     88% 0.00 in meteobridge W/m2
04:35 67.5 °F 63.9 °F 29.95 in Calm   3.0 mph 88% 0.00 in meteobridge W/m2
04:40 67.6 °F 64.0 °F 29.95 in Calm     88% 0.00 in meteobridge W/m2
04:45 67.8 °F 64.2 °F 29.96 in Calm     88% 0.00 in meteobridge W/m2
04:50 67.8 °F 64.2 °F 29.96 in North 0.9 mph 1.0 mph 88% 0.00 in meteobridge W/m2
04:55 68.2 °F 64.4 °F 29.96 in NNE 0.9 mph 5.0 mph 88% 0.00 in meteobridge W/m2
05:00 68.4 °F 64.6 °F 29.97 in Calm   2.0 mph 88% 0.00 in meteobridge W/m2
05:05 68.4 °F 64.4 °F 29.96 in Calm     87% 0.00 in meteobridge W/m2
05:10 68.5 °F 64.6 °F 29.96 in Calm     87% 0.00 in meteobridge W/m2
05:15 68.5 °F 64.6 °F 29.97 in Calm     87% 0.00 in meteobridge W/m2
05:20 68.4 °F 64.4 °F 29.97 in Calm     87% 0.00 in meteobridge W/m2
05:25 68.4 °F 64.6 °F 29.96 in Calm     88% 0.00 in meteobridge W/m2
05:30 68.2 °F 64.4 °F 29.97 in Calm   1.0 mph 88% 0.00 in meteobridge W/m2
05:35 68.2 °F 64.8 °F 29.98 in Calm     89% 0.00 in meteobridge W/m2
05:40 68.2 °F 64.8 °F 29.98 in Calm   2.0 mph 89% 0.00 in meteobridge W/m2
05:45 68.2 °F 64.8 °F 29.98 in Calm     89% 0.00 in meteobridge W/m2
05:50 68.4 °F 64.9 °F 29.98 in Calm     89% 0.00 in meteobridge W/m2
05:55 68.4 °F 64.9 °F 29.98 in Calm     89% 0.00 in meteobridge W/m2
06:00 68.4 °F 64.9 °F 29.98 in Calm     89% 0.00 in meteobridge W/m2
06:05 68.4 °F 64.9 °F 29.98 in Calm   1.0 mph 89% 0.00 in meteobridge W/m2
06:10 68.4 °F 64.9 °F 29.98 in Calm     89% 0.00 in meteobridge W/m2
06:15 68.5 °F 65.1 °F 29.99 in Calm   4.0 mph 89% 0.00 in meteobridge W/m2
06:20 68.5 °F 65.1 °F 29.98 in Calm     89% 0.00 in meteobridge W/m2
06:25 68.5 °F 65.1 °F 29.98 in Calm   1.0 mph 89% 0.00 in meteobridge W/m2
06:30 68.5 °F 65.1 °F 29.98 in Calm   2.0 mph 89% 0.00 in meteobridge W/m2
06:35 68.5 °F 65.5 °F 29.98 in Calm     90% 0.00 in meteobridge W/m2
06:40 68.4 °F 65.3 °F 29.98 in Calm     90% 0.00 in meteobridge W/m2
06:45 68.2 °F 65.5 °F 29.98 in Calm     91% 0.00 in meteobridge W/m2
06:50 67.8 °F 65.5 °F 29.98 in Calm     92% 0.00 in meteobridge W/m2
06:55 67.6 °F 65.3 °F 29.98 in Calm     92% 0.00 in meteobridge W/m2
07:00 67.5 °F 65.1 °F 29.98 in Calm     92% 0.00 in meteobridge W/m2
07:05 67.5 °F 65.3 °F 29.98 in Calm   1.0 mph 93% 0.00 in meteobridge W/m2
07:10 67.3 °F 65.1 °F 29.97 in Calm     93% 0.00 in meteobridge W/m2
07:15 67.3 °F 65.1 °F 29.98 in Calm     93% 0.00 in meteobridge W/m2
07:20 67.3 °F 65.1 °F 29.99 in NW 2.0 mph 4.0 mph 93% 0.00 in meteobridge W/m2
07:25 67.3 °F 65.1 °F 30.01 in Calm   3.0 mph 93% 0.01 in meteobridge W/m2
07:30 67.3 °F 65.5 °F 30.01 in NW 2.0 mph 4.0 mph 94% 0.09 in meteobridge W/m2
07:35 66.9 °F 64.8 °F 30.01 in Calm   6.0 mph 93% 0.09 in meteobridge W/m2
07:40 66.6 °F 64.8 °F 29.99 in Calm     94% 0.10 in meteobridge W/m2
07:45 66.4 °F 64.2 °F 30.00 in Calm     93% 0.14 in meteobridge W/m2
07:50 66.2 °F 64.4 °F 29.98 in Calm   2.0 mph 94% 0.14 in meteobridge W/m2
07:55 66.0 °F 64.2 °F 29.98 in Calm     94% 0.14 in meteobridge W/m2
08:00 65.8 °F 64.4 °F 30.01 in Calm     95% 0.14 in meteobridge W/m2
08:05 65.7 °F 64.2 °F 30.01 in Calm     95% 0.14 in meteobridge W/m2
08:10 65.7 °F 64.2 °F 30.00 in Calm     95% 0.14 in meteobridge W/m2
08:15 65.7 °F 64.4 °F 30.00 in Calm     96% 0.14 in meteobridge W/m2
08:20 65.5 °F 64.2 °F 30.01 in Calm     96% 0.14 in meteobridge W/m2
08:25 65.7 °F 64.4 °F 30.01 in Calm     96% 0.13 in meteobridge W/m2
08:30 65.7 °F 64.4 °F 30.01 in Calm     96% 0.05 in meteobridge W/m2
08:35 65.7 °F 64.8 °F 30.01 in Calm     97% 0.04 in meteobridge W/m2
08:40 65.8 °F 64.9 °F 30.00 in Calm     97% 0.04 in meteobridge W/m2
08:45 65.8 °F 64.9 °F 30.00 in Calm     97% 0.00 in meteobridge W/m2
08:50 66.0 °F 65.1 °F 30.01 in Calm     97% 0.00 in meteobridge W/m2
08:55 66.0 °F 65.1 °F 30.02 in Calm     97% 0.00 in meteobridge W/m2
09:00 66.4 °F 65.5 °F 30.02 in Calm   2.0 mph 97% 0.00 in meteobridge W/m2
09:05 66.6 °F 65.7 °F 30.03 in Calm     97% 0.00 in meteobridge W/m2
09:10 66.7 °F 66.2 °F 30.03 in Calm     98% 0.00 in meteobridge W/m2
09:15 66.9 °F 66.0 °F 30.03 in Calm     97% 0.00 in meteobridge W/m2
09:20 66.7 °F 65.8 °F 30.03 in Calm     97% 0.00 in meteobridge W/m2
09:25 66.7 °F 65.5 °F 30.03 in Calm   1.0 mph 96% 0.00 in meteobridge W/m2
09:30 66.7 °F 65.5 °F 30.03 in Calm     96% 0.00 in meteobridge W/m2
09:35 66.6 °F 65.3 °F 30.03 in Calm   2.0 mph 96% 0.00 in meteobridge W/m2
09:40 66.4 °F 64.9 °F 30.04 in Calm     95% 0.00 in meteobridge W/m2
09:45 66.0 °F 64.2 °F 30.03 in Calm     94% 0.00 in meteobridge W/m2
09:50 65.8 °F 64.0 °F 30.03 in Calm   1.0 mph 94% 0.00 in meteobridge W/m2
09:55 65.8 °F 64.4 °F 30.03 in Calm     95% 0.00 in meteobridge W/m2
10:00 65.8 °F 64.4 °F 30.03 in Calm     95% 0.00 in meteobridge W/m2
10:05 65.8 °F 64.0 °F 30.05 in Calm     94% 0.00 in meteobridge W/m2
10:10 65.7 °F 64.2 °F 30.05 in Calm     95% 0.00 in meteobridge W/m2
10:15 65.7 °F 64.2 °F 30.06 in ENE 2.9 mph 3.0 mph 95% 0.00 in meteobridge W/m2
10:20 65.5 °F 63.3 °F 30.06 in NE 0.9 mph 2.0 mph 93% 0.00 in meteobridge W/m2
10:25 65.1 °F 63.0 °F 30.07 in Calm     93% 0.00 in meteobridge W/m2
10:30 64.9 °F 62.8 °F 30.07 in Calm   1.0 mph 93% 0.00 in meteobridge W/m2
10:35 64.9 °F 63.1 °F 30.07 in Calm     94% 0.00 in meteobridge W/m2
10:40 65.1 °F 63.3 °F 30.07 in Calm   1.0 mph 94% 0.00 in meteobridge W/m2
10:45 65.5 °F 63.7 °F 30.06 in NE 2.9 mph 3.0 mph 94% 0.00 in meteobridge W/m2
10:50 65.7 °F 63.0 °F 30.06 in Calm   3.0 mph 91% 0.00 in meteobridge W/m2
10:55 66.4 °F 64.0 °F 30.05 in Calm     92% 0.00 in meteobridge W/m2
11:00 66.9 °F 64.6 °F 30.06 in Calm   3.0 mph 92% 0.00 in meteobridge W/m2
11:05 67.3 °F 64.2 °F 30.06 in NNW 2.9 mph 4.0 mph 90% 0.00 in meteobridge W/m2
11:10 67.3 °F 61.9 °F 30.07 in Calm   1.0 mph 83% 0.00 in meteobridge W/m2
11:15 67.3 °F 61.9 °F 30.07 in Calm   4.0 mph 83% 0.00 in meteobridge W/m2
11:20 67.5 °F 63.1 °F 30.07 in Calm   1.0 mph 86% 0.00 in meteobridge W/m2
11:25 67.8 °F 62.4 °F 30.06 in Calm   1.0 mph 83% 0.00 in meteobridge W/m2
11:30 68.4 °F 62.6 °F 30.06 in Calm   1.0 mph 82% 0.00 in meteobridge W/m2
11:35 68.5 °F 61.7 °F 30.06 in Calm   2.0 mph 79% 0.00 in meteobridge W/m2
11:40 68.5 °F 62.1 °F 30.07 in NW 2.9 mph 3.0 mph 80% 0.00 in meteobridge W/m2
11:45 68.5 °F 62.1 °F 30.07 in Calm     80% 0.00 in meteobridge W/m2
11:50 68.4 °F 61.5 °F 30.07 in Calm     79% 0.00 in meteobridge W/m2
11:55 68.7 °F 61.9 °F 30.07 in Calm   2.0 mph 79% 0.00 in meteobridge W/m2
12:00 69.1 °F 61.2 °F 30.07 in Calm   3.0 mph 76% 0.00 in meteobridge W/m2
12:05 69.3 °F 62.1 °F 30.07 in NNW 4.0 mph 7.0 mph 78% 0.00 in meteobridge W/m2
12:10 69.4 °F 58.8 °F 30.07 in NW 2.0 mph 4.0 mph 69% 0.00 in meteobridge W/m2
12:15 69.4 °F 57.9 °F 30.08 in Calm   2.0 mph 67% 0.00 in meteobridge W/m2
12:20 69.6 °F 56.8 °F 30.08 in Calm     64% 0.00 in meteobridge W/m2
12:25 70.2 °F 55.6 °F 30.07 in Calm   9.0 mph 60% 0.00 in meteobridge W/m2
12:30 70.9 °F 55.4 °F 30.07 in NW 6.0 mph 6.0 mph 58% 0.00 in meteobridge W/m2
12:35 71.4 °F 55.4 °F 30.08 in East 0.9 mph 1.0 mph 57% 0.00 in meteobridge W/m2
12:40 72.0 °F 55.9 °F 30.07 in NNW 0.9 mph 1.0 mph 57% 0.00 in meteobridge W/m2
12:45 72.1 °F 55.0 °F 30.07 in Calm   3.0 mph 55% 0.00 in meteobridge W/m2
12:50 72.3 °F 52.7 °F 30.07 in Calm   3.0 mph 50% 0.00 in meteobridge W/m2
12:55 72.9 °F 52.5 °F 30.07 in Calm   3.0 mph 49% 0.00 in meteobridge W/m2
13:00 73.0 °F 54.9 °F 30.07 in Calm   1.0 mph 53% 0.00 in meteobridge W/m2
13:05 73.6 °F 54.3 °F 30.07 in NE 0.9 mph 2.0 mph 51% 0.00 in meteobridge W/m2
13:10 73.8 °F 56.1 °F 30.07 in Calm   1.0 mph 54% 0.00 in meteobridge W/m2
13:15 73.9 °F 55.8 °F 30.07 in Calm   2.0 mph 53% 0.00 in meteobridge W/m2
13:20 74.1 °F 55.9 °F 30.07 in NW 0.9 mph 3.0 mph 53% 0.00 in meteobridge W/m2
13:25 74.1 °F 55.9 °F 30.07 in WNW 2.0 mph 4.0 mph 53% 0.00 in meteobridge W/m2
13:30 74.3 °F 56.1 °F 30.07 in Calm   1.0 mph 53% 0.00 in meteobridge W/m2
13:35 74.3 °F 54.5 °F 30.08 in Calm   3.0 mph 50% 0.00 in meteobridge W/m2
13:40 74.7 °F 55.4 °F 30.07 in SE 0.9 mph 4.0 mph 51% 0.00 in meteobridge W/m2
13:45 74.8 °F 52.7 °F 30.08 in Calm   2.0 mph 46% 0.00 in meteobridge W/m2
13:50 74.8 °F 51.4 °F 30.08 in NNW 2.0 mph 2.0 mph 44% 0.00 in meteobridge W/m2
13:55 75.0 °F 52.2 °F 30.08 in WSW 2.9 mph 4.0 mph 45% 0.00 in meteobridge W/m2
14:00 75.0 °F 52.9 °F 30.07 in Calm   3.0 mph 46% 0.00 in meteobridge W/m2
14:05 74.8 °F 52.7 °F 30.07 in Calm   3.0 mph 46% 0.00 in meteobridge W/m2
14:10 74.7 °F 50.7 °F 30.07 in Calm   2.0 mph 43% 0.00 in meteobridge W/m2
14:15 74.7 °F 50.7 °F 30.07 in Calm   5.0 mph 43% 0.00 in meteobridge W/m2
14:20 74.5 °F 50.5 °F 30.07 in NNE 0.9 mph 4.0 mph 43% 0.00 in meteobridge W/m2
14:25 74.7 °F 50.0 °F 30.06 in NW 0.9 mph 5.0 mph 42% 0.00 in meteobridge W/m2
14:30 75.0 °F 49.6 °F 30.07 in Calm   4.0 mph 41% 0.00 in meteobridge W/m2
14:35 75.4 °F 50.7 °F 30.07 in Calm   3.0 mph 42% 0.00 in meteobridge W/m2
14:40 75.6 °F 48.9 °F 30.07 in WNW 2.0 mph 4.0 mph 39% 0.00 in meteobridge W/m2
14:45 75.6 °F 51.4 °F 30.07 in Calm   3.0 mph 43% 0.00 in meteobridge W/m2
14:50 75.7 °F 50.4 °F 30.07 in West 0.9 mph 1.0 mph 41% 0.00 in meteobridge W/m2
14:55 75.7 °F 47.7 °F 30.07 in Calm   4.0 mph 37% 0.00 in meteobridge W/m2
15:00 75.7 °F 46.2 °F 30.07 in NNW 0.9 mph 3.0 mph 35% 0.00 in meteobridge W/m2
15:05 75.9 °F 47.1 °F 30.06 in NE 0.9 mph 7.0 mph 36% 0.00 in meteobridge W/m2
15:10 76.3 °F 48.0 °F 30.06 in Calm   4.0 mph 37% 0.00 in meteobridge W/m2
15:15 76.5 °F 47.5 °F 30.06 in WNW 2.9 mph 6.0 mph 36% 0.00 in meteobridge W/m2
15:20 76.5 °F 46.8 °F 30.06 in Calm   1.0 mph 35% 0.00 in meteobridge W/m2
15:25 76.3 °F 48.0 °F 30.06 in NW 4.9 mph 5.0 mph 37% 0.00 in meteobridge W/m2
15:30 75.9 °F 49.1 °F 30.06 in West 2.9 mph 9.0 mph 39% 0.00 in meteobridge W/m2
15:35 75.6 °F 48.2 °F 30.06 in NE 2.0 mph 3.0 mph 38% 0.00 in meteobridge W/m2
15:40 75.4 °F 45.9 °F 30.06 in Calm   4.0 mph 35% 0.00 in meteobridge W/m2
15:45 75.4 °F 46.6 °F 30.06 in West 0.9 mph 5.0 mph 36% 0.00 in meteobridge W/m2
15:50 75.4 °F 45.1 °F 30.06 in NNE 2.0 mph 2.0 mph 34% 0.00 in meteobridge W/m2
15:55 75.4 °F 45.9 °F 30.06 in NW 8.1 mph 10.0 mph 35% 0.00 in meteobridge W/m2
16:00 75.4 °F 43.5 °F 30.06 in Calm   4.0 mph 32% 0.00 in meteobridge W/m2
16:05 75.4 °F 44.2 °F 30.06 in Calm   3.0 mph 33% 0.00 in meteobridge W/m2
16:10 75.0 °F 39.7 °F 30.06 in NW 0.9 mph 3.0 mph 28% 0.00 in meteobridge W/m2
16:15 75.0 °F 42.3 °F 30.06 in Calm   4.0 mph 31% 0.00 in meteobridge W/m2
16:20 75.0 °F 41.5 °F 30.06 in Calm   4.0 mph 30% 0.00 in meteobridge W/m2
16:25 74.8 °F 42.3 °F 30.06 in Calm   6.0 mph 31% 0.00 in meteobridge W/m2
16:30 75.0 °F 42.3 °F 30.06 in Calm   2.0 mph 31% 0.00 in meteobridge W/m2
16:35 75.2 °F 41.7 °F 30.06 in NW 4.0 mph 7.0 mph 30% 0.00 in meteobridge W/m2
16:40 75.0 °F 44.8 °F 30.06 in Calm   1.0 mph 34% 0.00 in meteobridge W/m2
16:45 74.8 °F 43.9 °F 30.06 in NNE 2.0 mph 2.0 mph 33% 0.00 in meteobridge W/m2
16:50 74.7 °F 43.7 °F 30.06 in Calm   1.0 mph 33% 0.00 in meteobridge W/m2
16:55 74.7 °F 45.1 °F 30.06 in Calm   3.0 mph 35% 0.00 in meteobridge W/m2
17:00 74.7 °F 42.1 °F 30.06 in Calm     31% 0.00 in meteobridge W/m2
17:05 74.7 °F 42.1 °F 30.06 in Calm     31% 0.00 in meteobridge W/m2
17:10 74.8 °F 40.5 °F 30.06 in Calm     29% 0.00 in meteobridge W/m2
17:15 74.8 °F 41.4 °F 30.06 in Calm     30% 0.00 in meteobridge W/m2
17:20 74.7 °F 40.3 °F 30.06 in Calm     29% 0.00 in meteobridge W/m2
17:25 74.7 °F 41.2 °F 30.06 in Calm     30% 0.00 in meteobridge W/m2
17:30 74.7 °F 42.1 °F 30.06 in Calm     31% 0.00 in meteobridge W/m2
17:35 74.5 °F 43.5 °F 30.06 in Calm     33% 0.00 in meteobridge W/m2
17:40 74.5 °F 42.6 °F 30.06 in Calm     32% 0.00 in meteobridge W/m2
17:45 74.7 °F 44.4 °F 30.06 in Calm     34% 0.00 in meteobridge W/m2
17:50 74.5 °F 44.2 °F 30.06 in Calm     34% 0.00 in meteobridge W/m2
17:55 74.5 °F 41.0 °F 30.06 in Calm     30% 0.00 in meteobridge W/m2
18:00 74.3 °F 42.6 °F 30.06 in Calm     32% 0.00 in meteobridge W/m2
18:05 74.1 °F 43.2 °F 30.06 in Calm     33% 0.00 in meteobridge W/m2
18:10 73.9 °F 43.9 °F 30.07 in Calm     34% 0.00 in meteobridge W/m2
EllijayWeather
Compliments of Weather Underground - 2.25 mb